sensor_id;sensor_type;location;lat;lon;timestamp;pressure;altitude;pressure_sealevel;temperature
9985;BMP180;16737;50.932;6.780;2023-07-31T00:00:22;99916.00;;;21.60
9985;BMP180;16737;50.932;6.780;2023-07-31T00:02:49;99948.00;;;21.60
9985;BMP180;16737;50.932;6.780;2023-07-31T00:05:19;99944.00;;;21.60
9985;BMP180;16737;50.932;6.780;2023-07-31T00:07:48;99920.00;;;21.60
9985;BMP180;16737;50.932;6.780;2023-07-31T00:10:17;99953.00;;;21.50
9985;BMP180;16737;50.932;6.780;2023-07-31T00:12:45;99952.00;;;21.60
9985;BMP180;16737;50.932;6.780;2023-07-31T00:15:14;99959.00;;;21.60
9985;BMP180;16737;50.932;6.780;2023-07-31T00:17:41;99923.00;;;21.70
9985;BMP180;16737;50.932;6.780;2023-07-31T00:20:10;99950.00;;;21.70
9985;BMP180;16737;50.932;6.780;2023-07-31T00:22:37;99942.00;;;21.70
9985;BMP180;16737;50.932;6.780;2023-07-31T00:25:04;99951.00;;;21.70
9985;BMP180;16737;50.932;6.780;2023-07-31T00:27:33;99942.00;;;21.70
9985;BMP180;16737;50.932;6.780;2023-07-31T00:30:00;99951.00;;;21.70
9985;BMP180;16737;50.932;6.780;2023-07-31T00:32:27;99958.00;;;21.70
9985;BMP180;16737;50.932;6.780;2023-07-31T00:34:54;99956.00;;;21.80
9985;BMP180;16737;50.932;6.780;2023-07-31T00:37:21;99926.00;;;21.80
9985;BMP180;16737;50.932;6.780;2023-07-31T00:39:48;99960.00;;;21.80
9985;BMP180;16737;50.932;6.780;2023-07-31T00:42:15;99957.00;;;21.80
9985;BMP180;16737;50.932;6.780;2023-07-31T00:44:44;99938.00;;;21.80
9985;BMP180;16737;50.932;6.780;2023-07-31T00:47:14;99948.00;;;21.80
9985;BMP180;16737;50.932;6.780;2023-07-31T00:49:41;99974.00;;;21.80
9985;BMP180;16737;50.932;6.780;2023-07-31T00:52:09;99958.00;;;21.80
9985;BMP180;16737;50.932;6.780;2023-07-31T00:54:37;99951.00;;;21.80
9985;BMP180;16737;50.932;6.780;2023-07-31T00:57:07;99953.00;;;21.80
9985;BMP180;16737;50.932;6.780;2023-07-31T00:59:34;99939.00;;;21.80
9985;BMP180;16737;50.932;6.780;2023-07-31T01:02:03;99933.00;;;21.80
9985;BMP180;16737;50.932;6.780;2023-07-31T01:04:31;99931.00;;;21.80
9985;BMP180;16737;50.932;6.780;2023-07-31T01:07:09;99924.00;;;21.70
9985;BMP180;16737;50.932;6.780;2023-07-31T01:09:45;99915.00;;;21.70
9985;BMP180;16737;50.932;6.780;2023-07-31T01:12:15;99924.00;;;21.70
9985;BMP180;16737;50.932;6.780;2023-07-31T01:14:52;99933.00;;;21.70
9985;BMP180;16737;50.932;6.780;2023-07-31T01:17:29;99936.00;;;21.70
9985;BMP180;16737;50.932;6.780;2023-07-31T01:20:00;99930.00;;;21.70
9985;BMP180;16737;50.932;6.780;2023-07-31T01:22:51;99917.00;;;21.70
9985;BMP180;16737;50.932;6.780;2023-07-31T01:25:51;99918.00;;;21.70
9985;BMP180;16737;50.932;6.780;2023-07-31T01:28:35;99925.00;;;21.70
9985;BMP180;16737;50.932;6.780;2023-07-31T01:31:09;99917.00;;;21.80
9985;BMP180;16737;50.932;6.780;2023-07-31T01:33:38;99900.00;;;21.80
9985;BMP180;16737;50.932;6.780;2023-07-31T01:36:06;99924.00;;;21.80
9985;BMP180;16737;50.932;6.780;2023-07-31T01:38:33;99927.00;;;21.80
9985;BMP180;16737;50.932;6.780;2023-07-31T01:41:02;99924.00;;;21.80
9985;BMP180;16737;50.932;6.780;2023-07-31T01:43:29;99900.00;;;21.80
9985;BMP180;16737;50.932;6.780;2023-07-31T01:45:56;99918.00;;;21.80
9985;BMP180;16737;50.932;6.780;2023-07-31T01:48:23;99926.00;;;21.80
9985;BMP180;16737;50.932;6.780;2023-07-31T01:50:50;99901.00;;;21.80
9985;BMP180;16737;50.932;6.780;2023-07-31T01:53:17;99917.00;;;21.90
9985;BMP180;16737;50.932;6.780;2023-07-31T01:55:44;99917.00;;;21.90
9985;BMP180;16737;50.932;6.780;2023-07-31T01:58:12;99899.00;;;21.90
9985;BMP180;16737;50.932;6.780;2023-07-31T02:00:39;99916.00;;;22.00
9985;BMP180;16737;50.932;6.780;2023-07-31T02:03:06;99916.00;;;22.00
9985;BMP180;16737;50.932;6.780;2023-07-31T02:05:33;99913.00;;;22.00
9985;BMP180;16737;50.932;6.780;2023-07-31T02:08:00;99912.00;;;22.00
9985;BMP180;16737;50.932;6.780;2023-07-31T02:10:27;99914.00;;;22.00
9985;BMP180;16737;50.932;6.780;2023-07-31T02:12:54;99897.00;;;22.00
9985;BMP180;16737;50.932;6.780;2023-07-31T02:15:22;99899.00;;;22.10
9985;BMP180;16737;50.932;6.780;2023-07-31T02:17:49;99892.00;;;22.10
9985;BMP180;16737;50.932;6.780;2023-07-31T02:20:16;99880.00;;;22.10
9985;BMP180;16737;50.932;6.780;2023-07-31T02:22:43;99884.00;;;22.10
9985;BMP180;16737;50.932;6.780;2023-07-31T02:25:10;99851.00;;;22.10
9985;BMP180;16737;50.932;6.780;2023-07-31T02:27:37;99875.00;;;22.10
9985;BMP180;16737;50.932;6.780;2023-07-31T02:30:05;99873.00;;;22.10
9985;BMP180;16737;50.932;6.780;2023-07-31T02:32:34;99859.00;;;22.10
9985;BMP180;16737;50.932;6.780;2023-07-31T02:35:01;99864.00;;;22.10
9985;BMP180;16737;50.932;6.780;2023-07-31T02:37:28;99859.00;;;22.10
9985;BMP180;16737;50.932;6.780;2023-07-31T02:39:55;99873.00;;;22.10
9985;BMP180;16737;50.932;6.780;2023-07-31T02:42:22;99867.00;;;22.10
9985;BMP180;16737;50.932;6.780;2023-07-31T02:44:49;99875.00;;;22.10
9985;BMP180;16737;50.932;6.780;2023-07-31T02:47:21;99856.00;;;22.10
9985;BMP180;16737;50.932;6.780;2023-07-31T02:49:49;99867.00;;;22.20
9985;BMP180;16737;50.932;6.780;2023-07-31T02:52:16;99874.00;;;22.20
9985;BMP180;16737;50.932;6.780;2023-07-31T02:54:44;99867.00;;;22.20
9985;BMP180;16737;50.932;6.780;2023-07-31T02:57:10;99873.00;;;22.20
9985;BMP180;16737;50.932;6.780;2023-07-31T02:59:38;99843.00;;;22.20
9985;BMP180;16737;50.932;6.780;2023-07-31T03:02:05;99866.00;;;22.20
9985;BMP180;16737;50.932;6.780;2023-07-31T03:04:32;99870.00;;;22.20
9985;BMP180;16737;50.932;6.780;2023-07-31T03:07:00;99867.00;;;22.30
9985;BMP180;16737;50.932;6.780;2023-07-31T03:09:27;99859.00;;;22.30
9985;BMP180;16737;50.932;6.780;2023-07-31T03:11:54;99860.00;;;22.30
9985;BMP180;16737;50.932;6.780;2023-07-31T03:14:21;99845.00;;;22.30
9985;BMP180;16737;50.932;6.780;2023-07-31T03:16:48;99853.00;;;22.30
9985;BMP180;16737;50.932;6.780;2023-07-31T03:19:15;99859.00;;;22.30
9985;BMP180;16737;50.932;6.780;2023-07-31T03:21:45;99853.00;;;22.30
9985;BMP180;16737;50.932;6.780;2023-07-31T03:24:13;99853.00;;;22.30
9985;BMP180;16737;50.932;6.780;2023-07-31T03:26:40;99849.00;;;22.40
9985;BMP180;16737;50.932;6.780;2023-07-31T03:29:08;99859.00;;;22.40
9985;BMP180;16737;50.932;6.780;2023-07-31T03:31:34;99854.00;;;22.40
9985;BMP180;16737;50.932;6.780;2023-07-31T03:34:01;99856.00;;;22.40
9985;BMP180;16737;50.932;6.780;2023-07-31T03:36:29;99847.00;;;22.30
9985;BMP180;16737;50.932;6.780;2023-07-31T03:38:56;99853.00;;;22.30
9985;BMP180;16737;50.932;6.780;2023-07-31T03:41:24;99854.00;;;22.40
9985;BMP180;16737;50.932;6.780;2023-07-31T03:43:51;99840.00;;;22.40
9985;BMP180;16737;50.932;6.780;2023-07-31T03:46:18;99842.00;;;22.40
9985;BMP180;16737;50.932;6.780;2023-07-31T03:48:46;99834.00;;;22.40
9985;BMP180;16737;50.932;6.780;2023-07-31T03:51:13;99835.00;;;22.40
9985;BMP180;16737;50.932;6.780;2023-07-31T03:53:40;99837.00;;;22.40
9985;BMP180;16737;50.932;6.780;2023-07-31T03:56:07;99834.00;;;22.40
9985;BMP180;16737;50.932;6.780;2023-07-31T03:58:35;99825.00;;;22.40
9985;BMP180;16737;50.932;6.780;2023-07-31T04:01:03;99831.00;;;22.50
9985;BMP180;16737;50.932;6.780;2023-07-31T04:03:30;99800.00;;;22.50
9985;BMP180;16737;50.932;6.780;2023-07-31T04:05:57;99830.00;;;22.50
9985;BMP180;16737;50.932;6.780;2023-07-31T04:08:24;99830.00;;;22.50
9985;BMP180;16737;50.932;6.780;2023-07-31T04:10:51;99788.00;;;22.50
9985;BMP180;16737;50.932;6.780;2023-07-31T04:13:18;99826.00;;;22.50
9985;BMP180;16737;50.932;6.780;2023-07-31T04:15:50;99807.00;;;22.50
9985;BMP180;16737;50.932;6.780;2023-07-31T04:18:17;99799.00;;;22.60
9985;BMP180;16737;50.932;6.780;2023-07-31T04:20:44;99817.00;;;22.60
9985;BMP180;16737;50.932;6.780;2023-07-31T04:23:11;99804.00;;;22.60
9985;BMP180;16737;50.932;6.780;2023-07-31T04:25:38;99772.00;;;22.60
9985;BMP180;16737;50.932;6.780;2023-07-31T04:28:05;99803.00;;;22.60
9985;BMP180;16737;50.932;6.780;2023-07-31T04:30:33;99790.00;;;22.60
9985;BMP180;16737;50.932;6.780;2023-07-31T04:33:01;99804.00;;;22.60
9985;BMP180;16737;50.932;6.780;2023-07-31T04:35:28;99792.00;;;22.60
9985;BMP180;16737;50.932;6.780;2023-07-31T04:37:55;99799.00;;;22.60
9985;BMP180;16737;50.932;6.780;2023-07-31T04:40:22;99807.00;;;22.60
9985;BMP180;16737;50.932;6.780;2023-07-31T04:42:49;99799.00;;;22.60
9985;BMP180;16737;50.932;6.780;2023-07-31T04:45:16;99803.00;;;22.60
9985;BMP180;16737;50.932;6.780;2023-07-31T04:47:43;99796.00;;;22.60
9985;BMP180;16737;50.932;6.780;2023-07-31T04:50:11;99786.00;;;22.60
9985;BMP180;16737;50.932;6.780;2023-07-31T04:52:38;99788.00;;;22.60
9985;BMP180;16737;50.932;6.780;2023-07-31T04:55:06;99794.00;;;22.60
9985;BMP180;16737;50.932;6.780;2023-07-31T04:57:33;99788.00;;;22.60
9985;BMP180;16737;50.932;6.780;2023-07-31T05:00:00;99790.00;;;22.60
9985;BMP180;16737;50.932;6.780;2023-07-31T05:02:27;99790.00;;;22.40
9985;BMP180;16737;50.932;6.780;2023-07-31T05:04:54;99775.00;;;22.60
9985;BMP180;16737;50.932;6.780;2023-07-31T05:07:22;99777.00;;;22.60
9985;BMP180;16737;50.932;6.780;2023-07-31T05:09:49;99781.00;;;22.70
9985;BMP180;16737;50.932;6.780;2023-07-31T05:12:16;99772.00;;;22.70
9985;BMP180;16737;50.932;6.780;2023-07-31T05:14:43;99776.00;;;22.70
9985;BMP180;16737;50.932;6.780;2023-07-31T05:17:10;99751.00;;;22.70
9985;BMP180;16737;50.932;6.780;2023-07-31T05:19:37;99772.00;;;22.70
9985;BMP180;16737;50.932;6.780;2023-07-31T05:22:04;99776.00;;;22.70
9985;BMP180;16737;50.932;6.780;2023-07-31T05:24:32;99768.00;;;22.70
9985;BMP180;16737;50.932;6.780;2023-07-31T05:26:59;99767.00;;;22.70
9985;BMP180;16737;50.932;6.780;2023-07-31T05:29:26;99741.00;;;22.70
9985;BMP180;16737;50.932;6.780;2023-07-31T05:31:53;99760.00;;;22.80
9985;BMP180;16737;50.932;6.780;2023-07-31T05:34:20;99753.00;;;22.80
9985;BMP180;16737;50.932;6.780;2023-07-31T05:36:47;99745.00;;;22.80
9985;BMP180;16737;50.932;6.780;2023-07-31T05:39:14;99737.00;;;22.80
9985;BMP180;16737;50.932;6.780;2023-07-31T05:41:42;99734.00;;;22.80
9985;BMP180;16737;50.932;6.780;2023-07-31T05:44:09;99709.00;;;22.80
9985;BMP180;16737;50.932;6.780;2023-07-31T05:46:36;99718.00;;;22.80
9985;BMP180;16737;50.932;6.780;2023-07-31T05:49:03;99709.00;;;22.80
9985;BMP180;16737;50.932;6.780;2023-07-31T05:51:30;99713.00;;;22.80
9985;BMP180;16737;50.932;6.780;2023-07-31T05:53:57;99686.00;;;22.80
9985;BMP180;16737;50.932;6.780;2023-07-31T05:56:24;99715.00;;;22.80
9985;BMP180;16737;50.932;6.780;2023-07-31T05:58:54;99719.00;;;22.80
9985;BMP180;16737;50.932;6.780;2023-07-31T06:01:22;99716.00;;;22.80
9985;BMP180;16737;50.932;6.780;2023-07-31T06:03:49;99706.00;;;22.80
9985;BMP180;16737;50.932;6.780;2023-07-31T06:06:17;99730.00;;;22.80
9985;BMP180;16737;50.932;6.780;2023-07-31T06:08:44;99711.00;;;22.80
9985;BMP180;16737;50.932;6.780;2023-07-31T06:11:11;99701.00;;;22.80
9985;BMP180;16737;50.932;6.780;2023-07-31T06:13:38;99705.00;;;22.80
9985;BMP180;16737;50.932;6.780;2023-07-31T06:16:06;99702.00;;;22.80
9985;BMP180;16737;50.932;6.780;2023-07-31T06:18:33;99715.00;;;22.80
9985;BMP180;16737;50.932;6.780;2023-07-31T06:21:00;99723.00;;;22.70
9985;BMP180;16737;50.932;6.780;2023-07-31T06:23:27;99717.00;;;22.70
9985;BMP180;16737;50.932;6.780;2023-07-31T06:25:54;99720.00;;;22.70
9985;BMP180;16737;50.932;6.780;2023-07-31T06:28:21;99718.00;;;22.70
9985;BMP180;16737;50.932;6.780;2023-07-31T06:30:48;99700.00;;;22.70
9985;BMP180;16737;50.932;6.780;2023-07-31T06:33:16;99708.00;;;22.70
9985;BMP180;16737;50.932;6.780;2023-07-31T06:35:43;99693.00;;;22.70
9985;BMP180;16737;50.932;6.780;2023-07-31T06:38:11;99714.00;;;22.70
9985;BMP180;16737;50.932;6.780;2023-07-31T06:40:38;99718.00;;;22.70
9985;BMP180;16737;50.932;6.780;2023-07-31T06:43:05;99713.00;;;22.70
9985;BMP180;16737;50.932;6.780;2023-07-31T06:45:37;99687.00;;;22.70
9985;BMP180;16737;50.932;6.780;2023-07-31T06:48:04;99707.00;;;22.70
9985;BMP180;16737;50.932;6.780;2023-07-31T06:50:33;99700.00;;;22.80
9985;BMP180;16737;50.932;6.780;2023-07-31T06:53:00;99701.00;;;22.80
9985;BMP180;16737;50.932;6.780;2023-07-31T06:55:28;99704.00;;;22.80
9985;BMP180;16737;50.932;6.780;2023-07-31T06:57:56;99698.00;;;22.80
9985;BMP180;16737;50.932;6.780;2023-07-31T07:00:23;99704.00;;;22.80
9985;BMP180;16737;50.932;6.780;2023-07-31T07:02:50;99701.00;;;22.80
9985;BMP180;16737;50.932;6.780;2023-07-31T07:05:18;99711.00;;;22.90
9985;BMP180;16737;50.932;6.780;2023-07-31T07:07:48;99689.00;;;22.90
9985;BMP180;16737;50.932;6.780;2023-07-31T07:10:15;99704.00;;;22.90
9985;BMP180;16737;50.932;6.780;2023-07-31T07:12:42;99707.00;;;23.00
9985;BMP180;16737;50.932;6.780;2023-07-31T07:15:09;99674.00;;;23.00
9985;BMP180;16737;50.932;6.780;2023-07-31T07:17:36;99697.00;;;23.00
9985;BMP180;16737;50.932;6.780;2023-07-31T07:20:08;99708.00;;;23.00
9985;BMP180;16737;50.932;6.780;2023-07-31T07:22:35;99704.00;;;23.10
9985;BMP180;16737;50.932;6.780;2023-07-31T07:25:04;99707.00;;;23.10
9985;BMP180;16737;50.932;6.780;2023-07-31T07:27:33;99718.00;;;23.10
9985;BMP180;16737;50.932;6.780;2023-07-31T07:30:00;99703.00;;;23.00
9985;BMP180;16737;50.932;6.780;2023-07-31T07:32:27;99712.00;;;23.10
9985;BMP180;16737;50.932;6.780;2023-07-31T07:34:55;99693.00;;;23.10
9985;BMP180;16737;50.932;6.780;2023-07-31T07:37:22;99708.00;;;23.10
9985;BMP180;16737;50.932;6.780;2023-07-31T07:39:49;99705.00;;;23.10
9985;BMP180;16737;50.932;6.780;2023-07-31T07:42:18;99704.00;;;23.10
9985;BMP180;16737;50.932;6.780;2023-07-31T07:44:45;99702.00;;;23.10
9985;BMP180;16737;50.932;6.780;2023-07-31T07:47:13;99709.00;;;23.10
9985;BMP180;16737;50.932;6.780;2023-07-31T07:49:40;99714.00;;;23.10
9985;BMP180;16737;50.932;6.780;2023-07-31T07:52:07;99712.00;;;23.00
9985;BMP180;16737;50.932;6.780;2023-07-31T07:54:34;99705.00;;;23.00
9985;BMP180;16737;50.932;6.780;2023-07-31T07:57:01;99714.00;;;23.00
9985;BMP180;16737;50.932;6.780;2023-07-31T07:59:30;99711.00;;;22.90
9985;BMP180;16737;50.932;6.780;2023-07-31T08:01:57;99707.00;;;22.90
9985;BMP180;16737;50.932;6.780;2023-07-31T08:04:24;99701.00;;;22.90
9985;BMP180;16737;50.932;6.780;2023-07-31T08:06:51;99688.00;;;22.80
9985;BMP180;16737;50.932;6.780;2023-07-31T08:09:18;99696.00;;;22.80
9985;BMP180;16737;50.932;6.780;2023-07-31T08:11:45;99691.00;;;22.80
9985;BMP180;16737;50.932;6.780;2023-07-31T08:14:12;99682.00;;;22.80
9985;BMP180;16737;50.932;6.780;2023-07-31T08:16:40;99682.00;;;22.80
9985;BMP180;16737;50.932;6.780;2023-07-31T08:19:07;99691.00;;;22.80
9985;BMP180;16737;50.932;6.780;2023-07-31T08:21:34;99676.00;;;22.80
9985;BMP180;16737;50.932;6.780;2023-07-31T08:24:01;99674.00;;;22.70
9985;BMP180;16737;50.932;6.780;2023-07-31T08:26:28;99675.00;;;22.90
9985;BMP180;16737;50.932;6.780;2023-07-31T08:28:55;99668.00;;;22.90
9985;BMP180;16737;50.932;6.780;2023-07-31T08:31:23;99667.00;;;22.90
9985;BMP180;16737;50.932;6.780;2023-07-31T08:33:51;99672.00;;;22.90
9985;BMP180;16737;50.932;6.780;2023-07-31T08:36:18;99656.00;;;22.90
9985;BMP180;16737;50.932;6.780;2023-07-31T08:38:48;99663.00;;;22.90
9985;BMP180;16737;50.932;6.780;2023-07-31T08:41:16;99667.00;;;22.90
9985;BMP180;16737;50.932;6.780;2023-07-31T08:43:45;99647.00;;;22.90
9985;BMP180;16737;50.932;6.780;2023-07-31T08:46:13;99670.00;;;22.90
9985;BMP180;16737;50.932;6.780;2023-07-31T08:48:42;99673.00;;;22.90
9985;BMP180;16737;50.932;6.780;2023-07-31T08:51:13;99670.00;;;22.90
9985;BMP180;16737;50.932;6.780;2023-07-31T08:53:40;99675.00;;;22.90
9985;BMP180;16737;50.932;6.780;2023-07-31T08:56:07;99673.00;;;22.90
9985;BMP180;16737;50.932;6.780;2023-07-31T08:58:35;99673.00;;;22.90
9985;BMP180;16737;50.932;6.780;2023-07-31T09:01:04;99666.00;;;22.80
9985;BMP180;16737;50.932;6.780;2023-07-31T09:03:34;99663.00;;;22.80
9985;BMP180;16737;50.932;6.780;2023-07-31T09:06:03;99679.00;;;22.80
9985;BMP180;16737;50.932;6.780;2023-07-31T09:08:33;99679.00;;;22.80
9985;BMP180;16737;50.932;6.780;2023-07-31T09:11:02;99678.00;;;22.70
9985;BMP180;16737;50.932;6.780;2023-07-31T09:13:31;99674.00;;;22.70
9985;BMP180;16737;50.932;6.780;2023-07-31T09:15:59;99671.00;;;22.70
9985;BMP180;16737;50.932;6.780;2023-07-31T09:18:26;99661.00;;;22.70
9985;BMP180;16737;50.932;6.780;2023-07-31T09:21:03;99673.00;;;22.70
9985;BMP180;16737;50.932;6.780;2023-07-31T09:23:43;99660.00;;;22.70
9985;BMP180;16737;50.932;6.780;2023-07-31T09:26:11;99661.00;;;22.70
9985;BMP180;16737;50.932;6.780;2023-07-31T09:28:38;99653.00;;;22.70
9985;BMP180;16737;50.932;6.780;2023-07-31T09:31:05;99656.00;;;22.80
9985;BMP180;16737;50.932;6.780;2023-07-31T09:33:31;99660.00;;;22.80
9985;BMP180;16737;50.932;6.780;2023-07-31T09:35:59;99649.00;;;22.80
9985;BMP180;16737;50.932;6.780;2023-07-31T09:38:29;99650.00;;;22.80
9985;BMP180;16737;50.932;6.780;2023-07-31T09:40:59;99648.00;;;22.90
9985;BMP180;16737;50.932;6.780;2023-07-31T09:43:27;99643.00;;;22.90
9985;BMP180;16737;50.932;6.780;2023-07-31T09:45:56;99645.00;;;23.00
9985;BMP180;16737;50.932;6.780;2023-07-31T09:48:24;99641.00;;;23.00
9985;BMP180;16737;50.932;6.780;2023-07-31T09:50:53;99639.00;;;23.10
9985;BMP180;16737;50.932;6.780;2023-07-31T09:53:28;99635.00;;;23.10
9985;BMP180;16737;50.932;6.780;2023-07-31T09:55:59;99639.00;;;23.10
9985;BMP180;16737;50.932;6.780;2023-07-31T09:58:29;99638.00;;;23.10
9985;BMP180;16737;50.932;6.780;2023-07-31T10:00:58;99614.00;;;23.20
9985;BMP180;16737;50.932;6.780;2023-07-31T10:03:27;99610.00;;;23.20
9985;BMP180;16737;50.932;6.780;2023-07-31T10:05:57;99625.00;;;23.20
9985;BMP180;16737;50.932;6.780;2023-07-31T10:08:32;99638.00;;;23.30
9985;BMP180;16737;50.932;6.780;2023-07-31T10:11:04;99619.00;;;23.30
9985;BMP180;16737;50.932;6.780;2023-07-31T10:13:33;99631.00;;;23.30
9985;BMP180;16737;50.932;6.780;2023-07-31T10:16:01;99623.00;;;23.30
9985;BMP180;16737;50.932;6.780;2023-07-31T10:18:29;99634.00;;;23.40
9985;BMP180;16737;50.932;6.780;2023-07-31T10:20:57;99623.00;;;23.40
9985;BMP180;16737;50.932;6.780;2023-07-31T10:23:24;99633.00;;;23.40
9985;BMP180;16737;50.932;6.780;2023-07-31T10:25:55;99630.00;;;23.40
9985;BMP180;16737;50.932;6.780;2023-07-31T10:28:26;99617.00;;;23.40
9985;BMP180;16737;50.932;6.780;2023-07-31T10:30:55;99632.00;;;23.50
9985;BMP180;16737;50.932;6.780;2023-07-31T10:33:22;99611.00;;;23.50
9985;BMP180;16737;50.932;6.780;2023-07-31T10:35:49;99628.00;;;23.50
9985;BMP180;16737;50.932;6.780;2023-07-31T10:38:19;99620.00;;;23.60
9985;BMP180;16737;50.932;6.780;2023-07-31T10:40:46;99614.00;;;23.60
9985;BMP180;16737;50.932;6.780;2023-07-31T10:43:25;99630.00;;;23.60
9985;BMP180;16737;50.932;6.780;2023-07-31T10:45:53;99622.00;;;23.60
9985;BMP180;16737;50.932;6.780;2023-07-31T10:48:21;99626.00;;;23.70
9985;BMP180;16737;50.932;6.780;2023-07-31T10:50:51;99630.00;;;23.70
9985;BMP180;16737;50.932;6.780;2023-07-31T10:53:28;99639.00;;;23.70
9985;BMP180;16737;50.932;6.780;2023-07-31T10:55:58;99636.00;;;23.70
9985;BMP180;16737;50.932;6.780;2023-07-31T10:58:27;99638.00;;;23.70
9985;BMP180;16737;50.932;6.780;2023-07-31T11:00:56;99626.00;;;23.70
9985;BMP180;16737;50.932;6.780;2023-07-31T11:03:27;99626.00;;;23.70
9985;BMP180;16737;50.932;6.780;2023-07-31T11:06:06;99619.00;;;23.80
9985;BMP180;16737;50.932;6.780;2023-07-31T11:08:41;99633.00;;;23.80
9985;BMP180;16737;50.932;6.780;2023-07-31T11:11:10;99626.00;;;23.80
9985;BMP180;16737;50.932;6.780;2023-07-31T11:13:45;99613.00;;;23.80
9985;BMP180;16737;50.932;6.780;2023-07-31T11:16:15;99609.00;;;23.80
9985;BMP180;16737;50.932;6.780;2023-07-31T11:18:44;99600.00;;;23.80
9985;BMP180;16737;50.932;6.780;2023-07-31T11:21:14;99604.00;;;23.90
9985;BMP180;16737;50.932;6.780;2023-07-31T11:23:45;99599.00;;;23.90
9985;BMP180;16737;50.932;6.780;2023-07-31T11:26:13;99600.00;;;24.00
9985;BMP180;16737;50.932;6.780;2023-07-31T11:28:41;99611.00;;;24.10
9985;BMP180;16737;50.932;6.780;2023-07-31T11:31:10;99615.00;;;24.10
9985;BMP180;16737;50.932;6.780;2023-07-31T11:33:37;99616.00;;;24.10
9985;BMP180;16737;50.932;6.780;2023-07-31T11:36:05;99589.00;;;24.20
9985;BMP180;16737;50.932;6.780;2023-07-31T11:38:33;99617.00;;;24.30
9985;BMP180;16737;50.932;6.780;2023-07-31T11:41:04;99591.00;;;24.30
9985;BMP180;16737;50.932;6.780;2023-07-31T11:43:32;99587.00;;;24.40
9985;BMP180;16737;50.932;6.780;2023-07-31T11:46:01;99570.00;;;24.50
9985;BMP180;16737;50.932;6.780;2023-07-31T11:48:31;99596.00;;;24.60
9985;BMP180;16737;50.932;6.780;2023-07-31T11:51:01;99587.00;;;24.70
9985;BMP180;16737;50.932;6.780;2023-07-31T11:53:35;99572.00;;;24.70
9985;BMP180;16737;50.932;6.780;2023-07-31T11:56:04;99582.00;;;24.80
9985;BMP180;16737;50.932;6.780;2023-07-31T11:58:34;99596.00;;;24.80
9985;BMP180;16737;50.932;6.780;2023-07-31T12:01:04;99601.00;;;24.80
9985;BMP180;16737;50.932;6.780;2023-07-31T12:03:31;99596.00;;;24.90
9985;BMP180;16737;50.932;6.780;2023-07-31T12:05:59;99592.00;;;24.90
9985;BMP180;16737;50.932;6.780;2023-07-31T12:08:26;99600.00;;;24.90
9985;BMP180;16737;50.932;6.780;2023-07-31T12:10:54;99581.00;;;24.80
9985;BMP180;16737;50.932;6.780;2023-07-31T12:13:30;99603.00;;;24.80
9985;BMP180;16737;50.932;6.780;2023-07-31T12:16:00;99596.00;;;24.80
9985;BMP180;16737;50.932;6.780;2023-07-31T12:26:02;99587.00;;;24.60
9985;BMP180;16737;50.932;6.780;2023-07-31T12:28:29;99591.00;;;24.60
9985;BMP180;16737;50.932;6.780;2023-07-31T12:30:58;99572.00;;;24.60
9985;BMP180;16737;50.932;6.780;2023-07-31T12:33:32;99587.00;;;24.60
9985;BMP180;16737;50.932;6.780;2023-07-31T12:36:02;99577.00;;;24.70
9985;BMP180;16737;50.932;6.780;2023-07-31T12:38:29;99572.00;;;24.70
9985;BMP180;16737;50.932;6.780;2023-07-31T12:40:56;99576.00;;;24.70
9985;BMP180;16737;50.932;6.780;2023-07-31T12:43:24;99596.00;;;24.70
9985;BMP180;16737;50.932;6.780;2023-07-31T12:45:53;99596.00;;;24.80
9985;BMP180;16737;50.932;6.780;2023-07-31T12:48:20;99583.00;;;24.80
9985;BMP180;16737;50.932;6.780;2023-07-31T12:50:47;99570.00;;;24.80
9985;BMP180;16737;50.932;6.780;2023-07-31T12:53:15;99581.00;;;24.70
9985;BMP180;16737;50.932;6.780;2023-07-31T12:55:42;99580.00;;;24.80
9985;BMP180;16737;50.932;6.780;2023-07-31T12:58:09;99557.00;;;24.80
9985;BMP180;16737;50.932;6.780;2023-07-31T13:00:38;99556.00;;;24.80
9985;BMP180;16737;50.932;6.780;2023-07-31T13:03:04;99555.00;;;24.80
9985;BMP180;16737;50.932;6.780;2023-07-31T13:05:32;99532.00;;;24.90
9985;BMP180;16737;50.932;6.780;2023-07-31T13:07:59;99543.00;;;24.90
9985;BMP180;16737;50.932;6.780;2023-07-31T13:10:27;99519.00;;;24.90
9985;BMP180;16737;50.932;6.780;2023-07-31T13:12:55;99531.00;;;24.90
9985;BMP180;16737;50.932;6.780;2023-07-31T13:15:22;99517.00;;;24.90
9985;BMP180;16737;50.932;6.780;2023-07-31T13:17:50;99515.00;;;24.90
9985;BMP180;16737;50.932;6.780;2023-07-31T13:20:17;99506.00;;;24.90
9985;BMP180;16737;50.932;6.780;2023-07-31T13:22:44;99486.00;;;24.90
9985;BMP180;16737;50.932;6.780;2023-07-31T13:25:11;99480.00;;;24.90
9985;BMP180;16737;50.932;6.780;2023-07-31T13:27:38;99484.00;;;25.00
9985;BMP180;16737;50.932;6.780;2023-07-31T13:30:07;99490.00;;;25.00
9985;BMP180;16737;50.932;6.780;2023-07-31T13:32:34;99485.00;;;25.10
9985;BMP180;16737;50.932;6.780;2023-07-31T13:35:06;99477.00;;;25.10
9985;BMP180;16737;50.932;6.780;2023-07-31T13:37:33;99484.00;;;25.20
9985;BMP180;16737;50.932;6.780;2023-07-31T13:40:01;99498.00;;;25.20
9985;BMP180;16737;50.932;6.780;2023-07-31T13:42:30;99497.00;;;25.20
9985;BMP180;16737;50.932;6.780;2023-07-31T13:44:57;99465.00;;;25.30
9985;BMP180;16737;50.932;6.780;2023-07-31T13:47:24;99485.00;;;25.30
9985;BMP180;16737;50.932;6.780;2023-07-31T13:49:51;99486.00;;;25.40
9985;BMP180;16737;50.932;6.780;2023-07-31T13:52:19;99484.00;;;25.50
9985;BMP180;16737;50.932;6.780;2023-07-31T13:54:46;99481.00;;;25.60
9985;BMP180;16737;50.932;6.780;2023-07-31T13:57:13;99477.00;;;25.80
9985;BMP180;16737;50.932;6.780;2023-07-31T13:59:40;99481.00;;;25.90
9985;BMP180;16737;50.932;6.780;2023-07-31T14:02:07;99491.00;;;26.00
9985;BMP180;16737;50.932;6.780;2023-07-31T14:04:34;99486.00;;;26.10
9985;BMP180;16737;50.932;6.780;2023-07-31T14:07:01;99487.00;;;26.20
9985;BMP180;16737;50.932;6.780;2023-07-31T14:09:30;99499.00;;;26.10
9985;BMP180;16737;50.932;6.780;2023-07-31T14:11:57;99503.00;;;26.10
9985;BMP180;16737;50.932;6.780;2023-07-31T14:14:24;99505.00;;;26.10
9985;BMP180;16737;50.932;6.780;2023-07-31T14:16:51;99507.00;;;26.10
9985;BMP180;16737;50.932;6.780;2023-07-31T14:19:18;99513.00;;;26.00
9985;BMP180;16737;50.932;6.780;2023-07-31T14:21:44;99510.00;;;26.00
9985;BMP180;16737;50.932;6.780;2023-07-31T14:24:11;99506.00;;;25.90
9985;BMP180;16737;50.932;6.780;2023-07-31T14:26:40;99487.00;;;25.90
9985;BMP180;16737;50.932;6.780;2023-07-31T14:29:07;99502.00;;;25.90
9985;BMP180;16737;50.932;6.780;2023-07-31T14:31:34;99489.00;;;25.80
9985;BMP180;16737;50.932;6.780;2023-07-31T14:34:00;99490.00;;;25.80